Villa Maria, Puerto Rico
Current Conditions -  °F | °C
As of 4:56 PM on Sunday 28 Dec 2014 (Local Time) from TJSJ Reporting Station
Scattered Clouds Scattered Clouds  
Wind Chill: 80°   Ceiling: Unl
Heat Index: 83°   Visibility: 10mi
Dew Point: 68°   Wind: 13mph
Humidity: 67%   Direction: 60°ENE
Pressure: 30.02"   Gusts: NA
Location:  18.2361°N, 66.0369°W
Report Text: TJSJ 282056Z 06011KT 10SM FEW022 SCT042 SCT080 27/20 A3002 RMK AO2 SLP164 T02670200 53002
Loading
Personal Weather Stations






























Interactive Weather Map New forecast layout! Learn more

10-Day Weather Forecast

Advertisements
Track Severe Weather on mobile